Terminal Aerodrome Forecast
Issued by NWS

Home | Current Version | Previous Version | Text Only | Print | Product List | Glossary On
Versions: 1 2 3 4 5 6 7 8 9 10 11 12 13 14 15 16 17 18
000
FTUS45 KFGZ 251300 AAA
TAFSEZ
TAF AMD
KSEZ 251311Z 2513/2612 05010KT P6SM FEW130
      TEMPO 2513/2515 5SM FU
     FM251500 VRB06KT P6SM FEW130
     FM252000 27010G17KT P6SM SCT100 BKN200
      TEMPO 2520/2524 -TSRA BKN090CB
     FM260100 VRB06KT P6SM SCT100 BKN200=

USA.gov is the U.S. government's official web portal to all federal, state and local government web resources and services.